Time;durP1;ratioP1;P1;durP2;ratioP2;P2;SDS_P1;SDS_P2;PMS_P1;PMS_P2;Temp;Humidity;BMP_temperature;BMP_pressure;BME280_temperature;BME280_humidity;BME280_pressure;Samples;Min_cycle;Max_cycle;Signal;HPM_P1;HPM_P2
2022/09/19 00:01:24;;;;;;;11.73;1.80;;;10.90;99.90;;;;;;5058202;28;20048;-69
2022/09/19 00:03:59;;;;;;;16.45;2.13;;;10.90;99.90;;;;;;5067258;28;20048;-67
2022/09/19 00:06:27;;;;;;;17.58;2.05;;;10.90;99.90;;;;;;5068756;28;20067;-69
2022/09/19 00:08:53;;;;;;;11.63;2.30;;;11.00;99.90;;;;;;5049725;28;20048;-68
2022/09/19 00:11:20;;;;;;;11.18;1.67;;;10.90;99.90;;;;;;5055548;28;20071;-70
2022/09/19 00:13:47;;;;;;;13.50;1.63;;;11.00;99.90;;;;;;5098344;28;20491;-68
2022/09/19 00:16:24;;;;;;;13.45;1.70;;;11.00;99.90;;;;;;5066156;28;20609;-68
2022/09/19 00:18:51;;;;;;;6.78;1.55;;;11.00;99.90;;;;;;5058947;28;20499;-67
2022/09/19 00:21:24;;;;;;;10.93;1.60;;;11.10;99.90;;;;;;5060970;28;20066;-69
2022/09/19 00:26:36;;;;;;;11.75;1.83;;;11.10;99.90;;;;;;5064023;28;20517;-67
2022/09/19 00:29:03;;;;;;;14.07;2.75;;;11.10;99.90;;;;;;5049215;28;20534;-70
2022/09/19 00:31:29;;;;;;;10.25;1.40;;;11.10;99.90;;;;;;5049141;28;20548;-68
2022/09/19 00:33:55;;;;;;;15.90;1.63;;;11.10;99.90;;;;;;5069342;28;20049;-69
2022/09/19 00:36:22;;;;;;;8.85;1.83;;;11.10;99.90;;;;;;5064940;28;20037;-68
2022/09/19 00:38:48;;;;;;;10.52;1.80;;;11.10;99.90;;;;;;5067497;28;20395;-69
2022/09/19 00:41:16;;;;;;;9.70;1.50;;;11.10;99.90;;;;;;5065863;28;20589;-68
2022/09/19 00:43:54;;;;;;;11.98;1.75;;;11.10;99.90;;;;;;5066483;28;20444;-68
2022/09/19 00:46:23;;;;;;;9.35;1.63;;;11.10;99.90;;;;;;5065050;28;20033;-67
2022/09/19 00:48:59;;;;;;;9.98;1.42;;;11.10;99.90;;;;;;5061353;28;20495;-69
2022/09/19 00:51:36;;;;;;;8.05;1.27;;;11.10;99.90;;;;;;5066173;28;20045;-69
2022/09/19 00:54:07;;;;;;;10.02;1.55;;;11.10;99.90;;;;;;5065409;28;20475;-68
2022/09/19 00:56:34;;;;;;;14.35;2.03;;;11.20;99.90;;;;;;5064711;28;20064;-68
2022/09/19 00:59:01;;;;;;;8.77;1.77;;;11.10;99.90;;;;;;5063253;28;20094;-70
2022/09/19 01:01:28;;;;;;;15.25;1.67;;;11.10;99.90;;;;;;5063757;28;20040;-67
2022/09/19 01:03:55;;;;;;;18.40;2.65;;;11.10;99.90;;;;;;5061439;28;20042;-68
2022/09/19 01:06:45;;;;;;;13.32;2.30;;;11.10;99.90;;;;;;5058407;28;20384;-68
2022/09/19 01:10:00;;;;;;;16.63;1.95;;;11.00;99.90;;;;;;5047892;28;20036;-68
2022/09/19 01:12:46;;;;;;;8.55;1.42;;;11.00;99.90;;;;;;5063238;28;20037;-68
2022/09/19 01:15:19;;;;;;;13.38;1.90;;;11.10;99.90;;;;;;5017325;28;20044;-67
2022/09/19 01:17:54;;;;;;;14.88;1.73;;;11.10;99.90;;;;;;5032326;28;20450;-68
2022/09/19 01:20:40;;;;;;;14.93;1.85;;;11.10;99.90;;;;;;5029860;28;20061;-68
2022/09/19 01:23:20;;;;;;;20.00;2.30;;;11.00;99.90;;;;;;5061775;28;20053;-66
2022/09/19 01:25:58;;;;;;;14.60;1.63;;;11.00;99.90;;;;;;5031263;28;20025;-68
2022/09/19 01:28:32;;;;;;;14.13;1.95;;;11.00;99.90;;;;;;5030181;28;20044;-69
2022/09/19 01:31:18;;;;;;;16.23;2.10;;;10.90;99.90;;;;;;5033549;28;20528;-69
2022/09/19 01:34:12;;;;;;;12.27;1.45;;;10.90;99.90;;;;;;5030527;28;20041;-69
2022/09/19 01:36:52;;;;;;;13.63;1.52;;;10.90;99.90;;;;;;5047026;28;20080;-68
2022/09/19 01:39:23;;;;;;;8.35;1.38;;;10.90;99.90;;;;;;5029353;28;20049;-68
2022/09/19 01:41:54;;;;;;;12.52;2.25;;;10.90;99.90;;;;;;5049647;28;20045;-69
2022/09/19 01:44:24;;;;;;;10.20;1.67;;;11.00;99.90;;;;;;5071230;28;20457;-68
2022/09/19 01:46:53;;;;;;;12.07;1.75;;;11.00;99.90;;;;;;5072080;28;20604;-68
2022/09/19 01:49:37;;;;;;;9.27;1.70;;;11.00;99.90;;;;;;5052764;28;20055;-69
2022/09/19 01:52:35;;;;;;;8.35;1.77;;;11.00;99.90;;;;;;5071134;28;20044;-69
2022/09/19 01:55:03;;;;;;;11.45;1.85;;;11.00;99.90;;;;;;5031026;28;20060;-68
2022/09/19 01:57:49;;;;;;;7.22;1.42;;;11.00;99.90;;;;;;5032587;28;20143;-69
2022/09/19 02:00:21;;;;;;;10.05;1.52;;;11.00;99.90;;;;;;5029424;28;20088;-69
2022/09/19 02:03:13;;;;;;;9.60;1.77;;;11.00;99.90;;;;;;5030230;28;20061;-68
2022/09/19 02:05:55;;;;;;;9.23;1.85;;;11.00;99.90;;;;;;5030956;28;20119;-69
2022/09/19 02:08:47;;;;;;;6.07;1.10;;;11.00;99.90;;;;;;5029943;28;20039;-70
2022/09/19 02:11:22;;;;;;;9.27;2.03;;;11.00;99.90;;;;;;5027238;28;20049;-69
2022/09/19 02:14:15;;;;;;;7.53;1.27;;;11.00;99.90;;;;;;5031017;28;20055;-70
2022/09/19 02:16:46;;;;;;;9.45;1.83;;;11.00;99.90;;;;;;5028448;28;20044;-67
2022/09/19 02:19:20;;;;;;;11.23;1.57;;;10.90;99.90;;;;;;5028725;28;20085;-69
2022/09/19 02:21:56;;;;;;;6.93;1.25;;;10.90;99.90;;;;;;5026357;28;20052;-68
2022/09/19 02:24:34;;;;;;;5.53;1.10;;;10.90;99.90;;;;;;5029755;28;20124;-68
2022/09/19 02:27:25;;;;;;;4.95;1.02;;;10.80;99.90;;;;;;5031918;28;20048;-68
2022/09/19 02:29:57;;;;;;;2.35;0.85;;;10.70;99.90;;;;;;4971514;28;20050;-69
2022/09/19 02:32:24;;;;;;;7.55;1.15;;;10.70;99.90;;;;;;4999328;28;20611;-67
2022/09/19 02:34:52;;;;;;;3.60;0.82;;;10.60;99.90;;;;;;4988273;28;20630;-69
2022/09/19 02:37:22;;;;;;;3.80;1.10;;;10.60;99.90;;;;;;4990965;28;20208;-69
2022/09/19 02:39:57;;;;;;;8.52;1.33;;;10.50;99.90;;;;;;4991692;28;20687;-68
2022/09/19 02:42:34;;;;;;;9.05;1.23;;;10.50;99.90;;;;;;4968913;28;20513;-70
2022/09/19 02:45:18;;;;;;;4.65;1.20;;;10.40;99.90;;;;;;4990899;28;20052;-68
2022/09/19 02:48:07;;;;;;;5.85;1.20;;;10.40;99.90;;;;;;4979042;28;20157;-68
2022/09/19 02:50:47;;;;;;;11.40;1.60;;;10.40;99.90;;;;;;4973190;28;20050;-70
2022/09/19 02:53:18;;;;;;;11.50;1.60;;;10.40;99.90;;;;;;4985486;28;20061;-67
2022/09/19 02:55:49;;;;;;;10.77;1.40;;;10.40;99.90;;;;;;4990004;28;20057;-67
2022/09/19 02:58:17;;;;;;;10.90;1.20;;;10.40;99.90;;;;;;4970823;28;20133;-68
2022/09/19 03:00:53;;;;;;;12.02;1.60;;;10.40;99.90;;;;;;4991368;28;20084;-68
2022/09/19 03:04:12;;;;;;;13.70;1.45;;;10.40;99.90;;;;;;5004367;28;20068;-67
2022/09/19 03:06:55;;;;;;;11.05;1.60;;;10.40;99.90;;;;;;4993102;28;20052;-67
2022/09/19 03:09:26;;;;;;;15.57;2.05;;;10.40;99.90;;;;;;5026554;28;20610;-68
2022/09/19 03:12:41;;;;;;;9.85;1.73;;;10.50;99.90;;;;;;5043518;28;20041;-67
2022/09/19 03:15:07;;;;;;;19.05;2.15;;;10.50;99.90;;;;;;4995070;28;20399;-67
2022/09/19 03:17:41;;;;;;;21.15;2.28;;;10.50;99.90;;;;;;5010232;28;20045;-68
2022/09/19 03:20:11;;;;;;;11.85;2.10;;;10.60;99.90;;;;;;5027892;28;20199;-68
2022/09/19 03:22:39;;;;;;;16.00;1.63;;;10.50;99.90;;;;;;5034681;28;20188;-68
2022/09/19 03:25:06;;;;;;;15.52;1.90;;;10.60;99.90;;;;;;5004897;28;20048;-69
2022/09/19 03:27:32;;;;;;;16.48;2.15;;;10.60;99.90;;;;;;5029375;28;20073;-68
2022/09/19 03:29:57;;;;;;;12.10;1.55;;;10.60;99.90;;;;;;5022182;28;20095;-68
2022/09/19 03:32:26;;;;;;;12.55;1.60;;;10.60;99.90;;;;;;5025490;28;20448;-69
2022/09/19 03:34:55;;;;;;;16.00;2.08;;;10.50;99.90;;;;;;5019615;28;20515;-67
2022/09/19 03:37:21;;;;;;;10.50;1.58;;;10.60;99.90;;;;;;5041853;28;20049;-68
2022/09/19 03:39:47;;;;;;;14.68;2.05;;;10.60;99.90;;;;;;5036073;28;20510;-68
2022/09/19 03:42:14;;;;;;;21.35;2.63;;;10.60;99.90;;;;;;5058217;28;20045;-68
2022/09/19 03:44:40;;;;;;;13.55;2.08;;;10.60;99.90;;;;;;5050717;28;20059;-68
2022/09/19 03:47:05;;;;;;;17.65;2.47;;;10.50;99.90;;;;;;5067631;28;20387;-68
2022/09/19 03:49:31;;;;;;;11.68;1.60;;;10.50;99.90;;;;;;5094905;28;20044;-68
2022/09/19 03:51:58;;;;;;;13.80;1.55;;;10.60;99.90;;;;;;5065277;28;20124;-67
2022/09/19 03:54:24;;;;;;;11.20;1.67;;;10.60;99.90;;;;;;5065518;28;20059;-69
2022/09/19 03:56:49;;;;;;;13.68;2.35;;;10.60;99.90;;;;;;5065497;28;20036;-69
2022/09/19 03:59:15;;;;;;;11.73;1.98;;;10.60;99.90;;;;;;5049536;28;20560;-68
2022/09/19 04:01:40;;;;;;;16.88;1.80;;;10.60;99.90;;;;;;5062548;28;20040;-68
2022/09/19 04:04:06;;;;;;;16.75;1.60;;;10.60;99.90;;;;;;5050861;28;20059;-68
2022/09/19 04:06:32;;;;;;;11.70;1.40;;;10.60;99.90;;;;;;5046624;28;20051;-69
2022/09/19 04:09:00;;;;;;;13.82;1.50;;;10.60;99.90;;;;;;5066486;28;20076;-69
2022/09/19 04:11:27;;;;;;;12.25;1.85;;;10.70;99.90;;;;;;5045237;28;20392;-67
2022/09/19 04:13:53;;;;;;;17.40;2.17;;;10.70;99.90;;;;;;5064532;28;20044;-69
2022/09/19 04:16:19;;;;;;;14.50;1.95;;;10.60;99.90;;;;;;5065215;28;20044;-68
2022/09/19 04:18:50;;;;;;;7.43;1.40;;;10.60;99.90;;;;;;5062974;28;20098;-67
2022/09/19 04:21:16;;;;;;;9.32;1.50;;;10.60;99.90;;;;;;5059618;28;20036;-68
2022/09/19 04:23:43;;;;;;;10.25;1.60;;;10.60;99.90;;;;;;5069535;28;20514;-69
2022/09/19 04:26:11;;;;;;;8.90;1.50;;;10.60;99.90;;;;;;5067856;28;20098;-69
2022/09/19 04:28:38;;;;;;;8.70;1.42;;;10.50;99.90;;;;;;5066255;28;20560;-69
2022/09/19 04:31:07;;;;;;;8.30;1.45;;;10.50;99.90;;;;;;5066686;28;20036;-68
2022/09/19 04:33:32;;;;;;;10.60;1.55;;;10.50;99.90;;;;;;5063124;28;20123;-69
2022/09/19 04:36:00;;;;;;;12.05;1.90;;;10.40;99.90;;;;;;5047967;28;20119;-68
2022/09/19 04:38:28;;;;;;;10.40;2.05;;;10.40;99.90;;;;;;5065849;28;20587;-68
2022/09/19 04:40:56;;;;;;;14.05;2.63;;;10.30;99.90;;;;;;5043110;28;20076;-69
2022/09/19 04:43:24;;;;;;;8.30;1.60;;;10.20;99.90;;;;;;5052220;28;20083;-67
2022/09/19 04:45:50;;;;;;;8.48;1.48;;;10.20;99.90;;;;;;5065492;28;20060;-68
2022/09/19 04:48:20;;;;;;;4.53;1.00;;;10.10;99.90;;;;;;5070391;28;20525;-68
2022/09/19 04:50:50;;;;;;;7.43;1.30;;;10.10;99.90;;;;;;5069390;28;20736;-68
2022/09/19 04:53:27;;;;;;;6.78;1.35;;;10.00;99.90;;;;;;5067963;28;20114;-68
2022/09/19 04:55:54;;;;;;;5.72;1.13;;;10.00;99.90;;;;;;5070681;28;20417;-69
2022/09/19 04:58:20;;;;;;;7.32;1.27;;;9.90;99.90;;;;;;5069452;28;20093;-68
2022/09/19 05:00:53;;;;;;;6.43;1.13;;;9.90;99.90;;;;;;5060872;28;20041;-68
2022/09/19 05:03:20;;;;;;;6.80;1.30;;;9.80;99.90;;;;;;5045688;28;21040;-68
2022/09/19 05:05:52;;;;;;;11.48;1.38;;;9.80;99.90;;;;;;5099452;28;20285;-69
2022/09/19 05:08:20;;;;;;;;;;;9.70;99.90;;;;;;5099207;28;20036;-68
2022/09/19 05:10:47;;;;;;;5.90;1.00;;;9.70;99.90;;;;;;5066026;28;20314;-68
2022/09/19 05:13:13;;;;;;;8.48;1.33;;;9.70;99.90;;;;;;5063083;28;20074;-69
2022/09/19 05:15:41;;;;;;;6.80;1.70;;;9.70;99.90;;;;;;5072087;28;20032;-67
2022/09/19 05:18:10;;;;;;;8.10;1.88;;;9.60;99.90;;;;;;5070485;28;20051;-70
2022/09/19 05:20:36;;;;;;;7.15;0.95;;;9.60;99.90;;;;;;5068615;28;20561;-68
2022/09/19 05:23:03;;;;;;;7.97;1.30;;;9.60;99.90;;;;;;5046924;28;20167;-67
2022/09/19 05:25:34;;;;;;;7.07;1.20;;;9.60;99.90;;;;;;5070313;28;20029;-69
2022/09/19 05:28:05;;;;;;;6.83;1.63;;;9.50;99.90;;;;;;5072977;28;20043;-67
2022/09/19 05:30:32;;;;;;;8.20;1.20;;;9.50;99.90;;;;;;5065671;28;20111;-69
2022/09/19 05:32:59;;;;;;;6.63;1.17;;;9.50;99.90;;;;;;5068087;28;20048;-69
2022/09/19 05:35:26;;;;;;;5.68;1.20;;;9.50;99.90;;;;;;5070849;28;20064;-69
2022/09/19 05:37:52;;;;;;;5.78;1.13;;;9.40;99.90;;;;;;5054138;28;20047;-68
2022/09/19 05:40:18;;;;;;;5.45;1.20;;;9.40;99.90;;;;;;5071296;28;20152;-67
2022/09/19 05:42:50;;;;;;;4.55;1.15;;;9.40;99.90;;;;;;5067830;28;20105;-69
2022/09/19 05:45:16;;;;;;;6.05;1.00;;;9.40;99.90;;;;;;5067800;28;20045;-68
2022/09/19 05:47:42;;;;;;;13.68;1.27;;;9.30;99.90;;;;;;5067825;28;20032;-68
2022/09/19 05:50:12;;;;;;;8.57;1.73;;;9.30;99.90;;;;;;5055544;28;20089;-73
2022/09/19 05:55:25;;;;;;;6.18;1.48;;;9.40;99.90;;;;;;5059776;28;20052;-70
2022/09/19 05:57:53;;;;;;;7.70;1.33;;;9.40;99.90;;;;;;5061910;28;20095;-67
2022/09/19 06:00:20;;;;;;;9.65;1.73;;;9.40;99.90;;;;;;5083292;28;20445;-66
2022/09/19 06:02:56;;;;;;;12.32;1.83;;;9.50;99.90;;;;;;5070811;28;20120;-68
2022/09/19 06:05:23;;;;;;;12.77;1.50;;;9.50;99.90;;;;;;5069778;28;20119;-68
2022/09/19 06:07:50;;;;;;;10.70;2.22;;;9.50;99.90;;;;;;5070954;28;20082;-66
2022/09/19 06:10:16;;;;;;;12.80;2.10;;;9.60;99.90;;;;;;5052432;28;20051;-67
2022/09/19 06:12:41;;;;;;;16.33;1.60;;;9.60;99.90;;;;;;5054101;28;20045;-66
2022/09/19 06:15:08;;;;;;;6.68;1.20;;;9.70;99.90;;;;;;5068943;28;20044;-67
2022/09/19 06:17:33;;;;;;;6.95;1.30;;;9.70;99.90;;;;;;5070119;28;20044;-67
2022/09/19 06:19:59;;;;;;;14.07;1.92;;;9.80;99.90;;;;;;5053513;28;20612;-67
2022/09/19 06:22:26;;;;;;;13.73;2.05;;;9.80;99.90;;;;;;5070721;28;20380;-66
2022/09/19 06:24:51;;;;;;;10.10;1.63;;;9.90;99.90;;;;;;5071400;28;20141;-67
2022/09/19 06:27:17;;;;;;;17.67;1.50;;;9.90;99.90;;;;;;5070625;28;20173;-68
2022/09/19 06:29:43;;;;;;;16.00;1.85;;;10.00;99.90;;;;;;5070905;28;20380;-65
2022/09/19 06:32:09;;;;;;;9.80;1.80;;;10.00;99.90;;;;;;5070942;28;20062;-66
2022/09/19 06:34:35;;;;;;;8.63;1.50;;;10.10;99.90;;;;;;5069153;28;20036;-66
2022/09/19 06:37:00;;;;;;;10.07;1.50;;;10.20;99.90;;;;;;5070396;28;20058;-68
2022/09/19 06:39:26;;;;;;;11.07;1.50;;;10.30;99.90;;;;;;5070683;28;20044;-67
2022/09/19 06:41:51;;;;;;;11.07;1.58;;;10.50;99.90;;;;;;5056683;28;20056;-66
2022/09/19 06:44:17;;;;;;;8.82;1.40;;;10.60;99.90;;;;;;5074052;28;20048;-68
2022/09/19 06:46:43;;;;;;;16.83;1.75;;;10.70;99.90;;;;;;5067747;28;20047;-66
2022/09/19 06:49:09;;;;;;;6.85;0.93;;;10.80;99.90;;;;;;5070052;28;20040;-68
2022/09/19 06:51:35;;;;;;;9.32;1.35;;;10.90;99.90;;;;;;5070633;28;20037;-66
2022/09/19 06:54:01;;;;;;;10.45;1.85;;;11.10;99.90;;;;;;5070280;28;20402;-67
2022/09/19 06:56:27;;;;;;;9.68;1.42;;;11.20;99.90;;;;;;5053129;28;20044;-67
2022/09/19 06:58:53;;;;;;;12.00;1.27;;;11.20;99.90;;;;;;5070973;28;20036;-67
2022/09/19 07:01:18;;;;;;;10.55;1.40;;;11.30;99.90;;;;;;5069631;28;20124;-69
2022/09/19 07:03:44;;;;;;;11.10;1.77;;;11.30;99.90;;;;;;5069725;28;20037;-68
2022/09/19 07:06:10;;;;;;;10.15;1.20;;;11.40;99.90;;;;;;5069653;28;20119;-66
2022/09/19 07:08:36;;;;;;;9.40;1.20;;;11.40;99.90;;;;;;5103491;28;20431;-66
2022/09/19 07:11:02;;;;;;;9.55;1.42;;;11.40;99.90;;;;;;5053319;28;20044;-67
2022/09/19 07:13:28;;;;;;;7.53;1.10;;;11.40;99.90;;;;;;5069730;28;20450;-67
2022/09/19 07:15:56;;;;;;;9.35;1.30;;;11.40;99.90;;;;;;5069954;28;20390;-67
2022/09/19 07:18:22;;;;;;;12.38;1.95;;;11.60;99.90;;;;;;5069400;28;20051;-67
2022/09/19 07:20:48;;;;;;;8.50;1.27;;;11.70;99.90;;;;;;5069330;28;20040;-66
2022/09/19 07:23:16;;;;;;;13.02;2.35;;;11.90;99.90;;;;;;5069555;28;20040;-66
2022/09/19 07:25:43;;;;;;;7.13;1.55;;;12.00;99.90;;;;;;5069677;28;20086;-66
2022/09/19 07:28:12;;;;;;;9.43;1.20;;;12.20;99.90;;;;;;5069169;28;20111;-67
2022/09/19 07:30:38;;;;;;;11.10;1.50;;;12.40;99.90;;;;;;5069001;28;20032;-67
2022/09/19 07:33:07;;;;;;;14.77;2.17;;;12.60;99.90;;;;;;5069723;28;20085;-67
2022/09/19 07:35:37;;;;;;;10.77;1.33;;;12.70;99.90;;;;;;5065573;28;20044;-69
2022/09/19 07:38:04;;;;;;;12.48;1.65;;;12.90;99.90;;;;;;5067868;28;20127;-66
2022/09/19 07:40:32;;;;;;;9.00;1.90;;;13.00;99.90;;;;;;5063633;28;20041;-69
2022/09/19 07:43:02;;;;;;;11.25;1.55;;;13.10;99.90;;;;;;5068976;28;20130;-68
2022/09/19 07:45:29;;;;;;;12.90;1.58;;;13.30;99.90;;;;;;5069196;28;20036;-65
2022/09/19 07:47:58;;;;;;;12.52;1.67;;;13.40;99.90;;;;;;5069120;28;20115;-67
2022/09/19 07:50:24;;;;;;;10.23;1.77;;;13.60;99.90;;;;;;5068216;28;20062;-66
2022/09/19 07:53:08;;;;;;;9.95;1.23;;;13.70;99.90;;;;;;5050977;28;20372;-70
2022/09/19 07:55:35;;;;;;;19.08;2.55;;;13.80;99.90;;;;;;5070054;28;20058;-67
2022/09/19 07:58:03;;;;;;;9.90;1.50;;;14.00;99.90;;;;;;5068970;28;20163;-65
2022/09/19 08:00:31;;;;;;;9.70;1.42;;;14.10;99.90;;;;;;5048034;28;20037;-67
2022/09/19 08:02:59;;;;;;;11.60;1.70;;;14.20;99.90;;;;;;5068586;28;20499;-68
2022/09/19 08:05:27;;;;;;;9.13;1.50;;;14.30;99.90;;;;;;5066646;28;20042;-68
2022/09/19 08:07:54;;;;;;;10.95;2.85;;;14.40;99.90;;;;;;5069003;28;20041;-68
2022/09/19 08:10:20;;;;;;;9.30;1.55;;;14.50;99.90;;;;;;5068983;28;20578;-68
2022/09/19 08:12:48;;;;;;;7.68;1.50;;;14.50;99.90;;;;;;5068827;28;20040;-68
2022/09/19 08:15:15;;;;;;;9.20;1.30;;;14.50;99.90;;;;;;5068183;28;20123;-68
2022/09/19 08:17:43;;;;;;;9.55;1.50;;;14.50;99.90;;;;;;5069011;28;20036;-67
2022/09/19 08:20:09;;;;;;;7.93;1.30;;;14.60;99.90;;;;;;5068854;28;20040;-68
2022/09/19 08:22:35;;;;;;;9.90;1.67;;;14.70;99.90;;;;;;5054235;28;20052;-68
2022/09/19 08:25:01;;;;;;;8.77;1.70;;;14.80;99.90;;;;;;5072869;28;20429;-67
2022/09/19 08:27:26;;;;;;;10.60;1.92;;;14.90;99.90;;;;;;5073415;28;20037;-66
2022/09/19 08:29:52;;;;;;;7.30;1.60;;;15.10;99.90;;;;;;5056074;28;20110;-69
2022/09/19 08:32:18;;;;;;;5.70;1.30;;;15.20;99.90;;;;;;5072570;28;20513;-68
2022/09/19 08:34:43;;;;;;;10.93;1.40;;;15.20;99.90;;;;;;5056800;28;20048;-68
2022/09/19 08:37:10;;;;;;;7.95;1.20;;;15.30;99.90;;;;;;5072604;28;20044;-66
2022/09/19 08:39:35;;;;;;;8.80;1.45;;;15.40;99.90;;;;;;5073052;28;20046;-66
2022/09/19 08:42:10;;;;;;;11.18;1.33;;;15.60;99.90;;;;;;5072145;28;20053;-67
2022/09/19 08:44:54;;;;;;;10.98;1.52;;;15.70;99.90;;;;;;5067084;28;20570;-67
2022/09/19 08:47:23;;;;;;;8.93;1.02;;;15.70;99.90;;;;;;5071465;28;20401;-66
2022/09/19 08:49:57;;;;;;;11.07;1.58;;;15.70;99.90;;;;;;5072762;28;20040;-67
2022/09/19 08:52:38;;;;;;;9.77;1.38;;;15.80;99.90;;;;;;5073917;28;20047;-66
2022/09/19 08:55:10;;;;;;;11.90;1.33;;;16.00;99.90;;;;;;5103896;28;20123;-67
2022/09/19 08:57:44;;;;;;;14.50;1.40;;;16.10;99.90;;;;;;5072935;28;20083;-69
2022/09/19 09:00:20;;;;;;;11.23;1.40;;;16.20;99.90;;;;;;5072071;28;20048;-67
2022/09/19 09:02:51;;;;;;;12.20;1.55;;;16.30;99.90;;;;;;5072327;28;20064;-69
2022/09/19 09:05:32;;;;;;;8.52;1.40;;;16.40;99.90;;;;;;5071691;28;20090;-67
2022/09/19 09:08:25;;;;;;;9.43;1.63;;;16.40;99.90;;;;;;5072045;28;20037;-68
2022/09/19 09:10:58;;;;;;;8.70;1.25;;;16.30;99.90;;;;;;5067928;28;20047;-67
2022/09/19 09:13:33;;;;;;;11.10;1.55;;;16.60;99.90;;;;;;5072223;28;20123;-70
2022/09/19 09:16:41;;;;;;;11.85;2.75;;;16.70;99.90;;;;;;5071879;28;20044;-69
2022/09/19 09:19:55;;;;;;;15.23;1.63;;;16.80;99.90;;;;;;5014572;28;20508;-68
2022/09/19 09:22:41;;;;;;;4.90;1.20;;;16.80;99.90;;;;;;4971984;28;20058;-68
2022/09/19 09:25:29;;;;;;;13.38;1.98;;;16.70;99.90;;;;;;4986264;28;20146;-69
2022/09/19 09:28:20;;;;;;;13.05;1.23;;;16.60;99.90;;;;;;4984037;28;20061;-70
2022/09/19 09:30:49;;;;;;;9.20;1.30;;;16.40;99.90;;;;;;4954873;28;20050;-66
2022/09/19 09:33:31;;;;;;;12.25;1.55;;;16.60;99.90;;;;;;4987977;28;20130;-68
2022/09/19 09:36:03;;;;;;;11.95;1.50;;;16.80;99.90;;;;;;4988265;28;20502;-68
2022/09/19 09:38:52;;;;;;;10.20;1.90;;;17.10;99.90;;;;;;4987190;28;20051;-66
2022/09/19 09:41:45;;;;;;;10.25;1.80;;;17.20;99.90;;;;;;4948490;28;20058;-67
2022/09/19 09:44:13;;;;;;;9.60;1.60;;;17.30;99.90;;;;;;4987559;28;20126;-68
2022/09/19 09:47:03;;;;;;;10.90;1.77;;;17.70;99.90;;;;;;4988155;28;20572;-68
2022/09/19 09:49:30;;;;;;;11.27;1.60;;;17.60;99.90;;;;;;4954920;28;20121;-66
2022/09/19 09:52:14;;;;;;;11.48;1.70;;;17.30;99.90;;;;;;4987821;28;20039;-67
2022/09/19 09:58:35;;;;;;;14.07;2.22;;;16.60;99.90;;;;;;5042817;28;20056;-70
2022/09/19 10:04:19;;;;;;;9.82;2.22;;;16.00;99.90;;;;;;5028300;28;20512;-67
2022/09/19 10:06:52;;;;;;;12.73;2.60;;;16.40;99.90;;;;;;5017447;28;20547;-69
2022/09/19 10:09:27;;;;;;;11.13;2.22;;;16.90;99.90;;;;;;5033366;28;20099;-67
2022/09/19 10:12:11;;;;;;;13.13;1.67;;;17.20;99.90;;;;;;5009783;28;20056;-67
2022/09/19 10:14:38;;;;;;;9.55;1.50;;;17.00;99.90;;;;;;5033496;28;20049;-68
2022/09/19 10:17:07;;;;;;;10.93;1.63;;;16.80;99.90;;;;;;5033581;28;20546;-68
2022/09/19 10:19:45;;;;;;;9.10;1.80;;;17.00;99.90;;;;;;5016690;28;20037;-67
2022/09/19 10:22:15;;;;;;;12.43;1.90;;;17.30;99.90;;;;;;5056504;28;20560;-66
2022/09/19 10:24:45;;;;;;;8.75;1.60;;;17.20;99.90;;;;;;5056681;28;20100;-67
2022/09/19 10:27:16;;;;;;;8.10;1.60;;;17.00;99.90;;;;;;5016799;28;20060;-68
2022/09/19 10:29:56;;;;;;;8.32;1.83;;;16.70;99.90;;;;;;5033298;28;20522;-69
2022/09/19 10:32:24;;;;;;;8.02;1.63;;;16.40;99.90;;;;;;5031423;28;20433;-67
2022/09/19 10:34:51;;;;;;;7.43;1.48;;;16.40;99.90;;;;;;5049702;28;20056;-69
2022/09/19 10:37:26;;;;;;;9.05;1.48;;;16.70;99.90;;;;;;5070579;28;20047;-66
2022/09/19 10:39:57;;;;;;;5.30;1.05;;;17.10;99.90;;;;;;5053854;28;20151;-67
2022/09/19 10:42:38;;;;;;;6.57;1.20;;;17.40;99.90;;;;;;5070500;28;20511;-69
2022/09/19 10:45:36;;;;;;;6.18;1.20;;;17.60;99.90;;;;;;5066099;28;20032;-69
2022/09/19 10:48:11;;;;;;;7.60;1.23;;;17.90;99.90;;;;;;5051809;28;20056;-68
2022/09/19 10:50:47;;;;;;;7.28;1.45;;;18.20;99.90;;;;;;5068813;28;20111;-68
2022/09/19 10:53:24;;;;;;;10.57;1.23;;;18.20;99.90;;;;;;5068744;28;20056;-68
2022/09/19 10:55:52;;;;;;;6.03;1.20;;;18.40;99.90;;;;;;5067931;28;20151;-68
2022/09/19 10:58:22;;;;;;;6.45;1.33;;;18.50;99.90;;;;;;5069097;28;20044;-69
2022/09/19 11:01:04;;;;;;;6.28;1.58;;;18.60;99.90;;;;;;5068456;28;20044;-67
2022/09/19 11:03:32;;;;;;;5.90;1.20;;;18.80;99.90;;;;;;5049347;28;20048;-69
2022/09/19 11:06:13;;;;;;;5.38;1.27;;;18.80;99.90;;;;;;5052526;28;20446;-70
2022/09/19 11:08:47;;;;;;;5.15;1.20;;;19.00;98.90;;;;;;5053584;28;20488;-69
2022/09/19 11:11:45;;;;;;;5.15;1.00;;;19.00;99.40;;;;;;5053654;28;20033;-68
2022/09/19 11:14:18;;;;;;;5.15;1.08;;;18.90;98.60;;;;;;5052962;28;21061;-68
2022/09/19 11:17:02;;;;;;;10.05;1.70;;;18.50;99.20;;;;;;5064007;28;20049;-69
2022/09/19 11:20:05;;;;;;;11.80;1.73;;;18.30;99.00;;;;;;5069184;28;20059;-68
2022/09/19 11:22:50;;;;;;;8.55;1.50;;;18.00;98.80;;;;;;5067897;28;20139;-68
2022/09/19 11:25:44;;;;;;;8.90;1.55;;;17.70;99.90;;;;;;5068740;28;20079;-68
2022/09/19 11:28:44;;;;;;;12.05;1.70;;;17.10;99.90;;;;;;5067308;28;20432;-67
2022/09/19 11:31:29;;;;;;;8.85;1.80;;;16.80;99.90;;;;;;5013205;28;20041;-67
2022/09/19 11:34:02;;;;;;;7.90;1.50;;;16.50;99.90;;;;;;5030980;28;20098;-67
2022/09/19 11:36:46;;;;;;;9.48;2.00;;;16.30;99.90;;;;;;5027780;28;20045;-68
2022/09/19 11:39:26;;;;;;;7.32;1.50;;;15.90;99.90;;;;;;5029848;28;20535;-69
2022/09/19 11:42:21;;;;;;;7.68;1.30;;;15.20;99.90;;;;;;5013327;28;20061;-68
2022/09/19 11:44:58;;;;;;;6.18;1.20;;;14.80;99.90;;;;;;5028292;28;20052;-68
2022/09/19 11:47:50;;;;;;;7.38;1.30;;;14.40;99.90;;;;;;5029187;28;20140;-67
2022/09/19 11:50:30;;;;;;;3.88;0.90;;;14.10;99.90;;;;;;5023429;28;20040;-67
2022/09/19 11:53:11;;;;;;;8.15;1.50;;;13.90;99.90;;;;;;5026541;28;20497;-68
2022/09/19 11:55:58;;;;;;;9.18;1.00;;;13.70;99.90;;;;;;5030921;28;20045;-68
2022/09/19 11:58:28;;;;;;;5.93;0.93;;;13.60;99.90;;;;;;5030727;28;20044;-66
2022/09/19 12:01:25;;;;;;;5.57;1.00;;;13.50;99.90;;;;;;5030477;28;20067;-67
2022/09/19 12:04:19;;;;;;;8.27;1.10;;;13.50;99.90;;;;;;5022955;28;20073;-66
2022/09/19 12:06:57;;;;;;;6.47;1.20;;;13.50;99.90;;;;;;5025512;28;20117;-68
2022/09/19 12:09:25;;;;;;;6.68;1.20;;;13.60;99.90;;;;;;5053252;28;20029;-65
2022/09/19 12:12:20;;;;;;;6.10;1.70;;;13.70;99.90;;;;;;5070219;28;20558;-67
2022/09/19 12:14:57;;;;;;;9.10;1.40;;;13.90;99.90;;;;;;5067498;28;20048;-67
2022/09/19 12:17:42;;;;;;;6.20;1.13;;;14.00;99.90;;;;;;5051706;28;20522;-68
2022/09/19 12:20:24;;;;;;;12.52;1.48;;;14.10;99.90;;;;;;5052784;28;20040;-67
2022/09/19 12:26:06;;;;;;;6.30;1.20;;;14.30;99.90;;;;;;5068549;28;20053;-68
2022/09/19 12:28:40;;;;;;;7.93;1.70;;;14.30;99.90;;;;;;5068278;28;20154;-68
2022/09/19 12:31:10;;;;;;;6.93;1.42;;;14.50;99.90;;;;;;5050815;28;20048;-67
2022/09/19 12:33:56;;;;;;;9.90;1.90;;;14.60;99.90;;;;;;5068526;28;20040;-66
2022/09/19 12:36:32;;;;;;;6.15;1.45;;;14.80;99.90;;;;;;5068284;28;20032;-67
2022/09/19 12:39:23;;;;;;;9.27;1.40;;;14.90;99.90;;;;;;5065593;28;20074;-69
2022/09/19 12:41:54;;;;;;;11.18;2.67;;;15.10;99.90;;;;;;5063445;28;20056;-70
2022/09/19 12:45:11;;;;;;;9.68;0.98;;;15.10;99.90;;;;;;5069011;28;20403;-66
2022/09/19 12:48:01;;;;;;;6.55;1.40;;;15.20;99.90;;;;;;5030493;28;20083;-67
2022/09/19 12:50:41;;;;;;;10.15;1.75;;;15.20;99.90;;;;;;5031303;28;20860;-67
2022/09/19 12:53:44;;;;;;;9.23;1.50;;;15.20;99.90;;;;;;5031040;28;20120;-67
2022/09/19 12:56:19;;;;;;;6.80;1.17;;;15.10;99.90;;;;;;5029710;28;20044;-66
2022/09/19 12:58:48;;;;;;;7.95;1.40;;;15.00;99.90;;;;;;5033476;28;20057;-68
2022/09/19 13:01:24;;;;;;;9.77;2.13;;;15.00;99.90;;;;;;5014235;28;20101;-67
2022/09/19 13:04:05;;;;;;;9.77;2.25;;;15.00;99.90;;;;;;5024125;28;20053;-67
2022/09/19 13:06:36;;;;;;;10.25;1.88;;;14.90;99.90;;;;;;5029767;28;20535;-69
2022/09/19 13:09:17;;;;;;;16.40;2.15;;;14.90;99.90;;;;;;5064482;28;20040;-66
2022/09/19 13:11:55;;;;;;;10.75;1.58;;;14.90;99.90;;;;;;5030575;28;20064;-68
2022/09/19 13:14:30;;;;;;;8.77;2.00;;;14.80;99.90;;;;;;5017833;28;20071;-66
2022/09/19 13:25:29;;;;;;;8.77;1.30;;;15.00;99.90;;;;;;5069982;28;20493;-69
2022/09/19 13:28:20;;;;;;;6.80;1.13;;;15.10;99.90;;;;;;5070639;28;20060;-67
2022/09/19 13:31:17;;;;;;;7.70;1.38;;;15.00;99.90;;;;;;5071701;28;20481;-68
2022/09/19 13:33:50;;;;;;;7.13;1.42;;;15.00;99.90;;;;;;5008224;28;20060;-66
2022/09/19 13:36:24;;;;;;;7.38;1.40;;;14.90;99.90;;;;;;5012086;28;20048;-66
2022/09/19 13:38:58;;;;;;;7.05;0.98;;;15.00;99.90;;;;;;5010692;28;20139;-68
2022/09/19 13:41:30;;;;;;;7.35;1.05;;;15.00;99.90;;;;;;5011933;28;20136;-67